Terminal Aerodrome Forecast
Issued by NWS

Home | Current Version | Previous Version | Text Only | Print | Product List | Glossary On
Versions: 1 2 3 4 5 6 7 8 9 10 11 12
890
FTUS45 KGGW 221100
TAFSDY
TAF
KSDY 221128Z 2212/2312 VRB04KT P6SM SKC
     FM221500 13010KT P6SM SKC
     FM230000 13015KT P6SM BKN170
     FM230300 12009KT P6SM BKN170
     FM230900 VRB04KT P6SM BKN180
      AMD LTD TO CLD VIS AND WIND=

USA.gov is the U.S. government's official web portal to all federal, state and local government web resources and services.